Startpagina
METAR-TAF:

METAR-TAF

Vliegvelden :

Kosrae, Micronesië

breedte: 05-21N, lengte: 162-57E, hoogte: 3 m

Actueel weer

Dit bericht is 16 uur en het 36 minuten geleden gemaakt, om 02:55 UTC
Wind 3 kt uit variabele richting
Temperatuur 28°C
Vochtigheid 89%
Druk 1007 hPa
Zicht: 16.1 km
Gebroken wolken op 1600 ft
Gebroken wolken op 13000 ft
Geheel bewolkt op 30000 ft
lichte regenbuien

METAR: PTSA 210255Z VRB03KT 10SM -SHRA BKN016 BKN130 OVC300 28/26 A2973 RMK LAST

Tijdstip: 06:31 (19:31 UTC)

Verwachting

Dit bericht is 20 uur en het 2 minuten geleden gemaakt, om 23:29 UTC
Verwachting geldig van 21 om 00 UTC tot 21 om 24 UTC
Wind 8 kt uit het zuiden
Zicht: 10 km
Gebroken wolken op 1500 ft
Gebroken wolken op 13000 ft
buien in de omgeving
Tijdelijke
van 21 om 00 UTC tot 21 om 04 UTC
Zicht: 6.4 km
Geheel bewolkt op 1500 ft
regenbuien

TAF: PTSA 202329Z 2100/2124 18008KT P6SM VCSH BKN015 BKN130 TEMPO 2100/2104 4SM SHRA OVC015

Waarnemingen en weersverwachtingen van meer dan 4000 vliegvelden (METAR en TAF).

De beschikbare stations zijn de gele en rode punten op de kaart.

Ga met uw muis naar het station om de naam te zien.

Klik dan om waarnemingen en weersverwachtingen te zien.

kaart wijzigen: klik op de groene knoppen met een zwart kruis om in te zoomen, op de groene knop met een streepje om uit te zoomen of op de groene pijlen voor aangrenzende kaarten.


METAR-TAF: